« Back
NWS Peachtree City, Ga » Text Product » ATL Terminal Aerodrome Forecast


Printer-friendly Version
Current Version              Previous Versions:   1  2  3  4  5  6  7  8  9  

Terminal Aerodrome Forecast

880
FTUS42 KFFC 282205 AAB
TAFATL
TAF AMD
KATL 282205Z 2822/0124 10011KT P6SM BKN100
     FM010000 08012KT P6SM SCT040 BKN090
     FM010300 08013KT P6SM SCT015 BKN035
     FM010600 08013KT 4SM -DZ BKN015
     FM011000 08012KT 2SM -RADZ OVC004
     FM011600 08008KT 4SM -RADZ OVC006=



USA.gov is the U.S. government's official web portal to all federal, state and local government web resources and services.